createdAt,value
2022-08-10T00:01:34.730Z,99.90
2022-08-10T00:04:02.347Z,99.90
2022-08-10T00:06:29.658Z,99.90
2022-08-10T00:08:56.922Z,99.90
2022-08-10T00:11:24.735Z,99.90
2022-08-10T00:13:52.477Z,99.90
2022-08-10T00:16:20.011Z,99.90
2022-08-10T00:18:47.233Z,99.90
2022-08-10T00:21:14.933Z,99.90
2022-08-10T00:23:42.082Z,99.90
2022-08-10T00:26:09.244Z,99.90
2022-08-10T00:28:36.661Z,99.90
2022-08-10T00:31:04.189Z,99.90
2022-08-10T00:33:31.281Z,99.90
2022-08-10T00:35:58.862Z,99.90
2022-08-10T00:38:25.970Z,99.90
2022-08-10T00:40:53.035Z,99.90
2022-08-10T00:43:23.322Z,99.90
2022-08-10T00:45:59.480Z,99.90
2022-08-10T00:48:29.242Z,99.90
2022-08-10T00:50:58.370Z,99.90
2022-08-10T00:53:27.160Z,99.90
2022-08-10T00:57:07.914Z,99.90
2022-08-10T00:58:43.030Z,99.90
2022-08-10T01:01:11.077Z,99.90
2022-08-10T01:04:57.745Z,99.90
2022-08-10T01:06:47.550Z,99.90
2022-08-10T01:09:59.730Z,99.90
2022-08-10T01:12:53.409Z,99.90
2022-08-10T01:15:38.922Z,99.90
2022-08-10T01:18:15.087Z,99.90
2022-08-10T01:21:19.905Z,99.90
2022-08-10T01:24:23.186Z,99.90
2022-08-10T01:27:17.853Z,99.90
2022-08-10T01:30:14.943Z,99.90
2022-08-10T01:33:03.044Z,99.90
2022-08-10T01:35:59.526Z,99.90
2022-08-10T01:38:32.369Z,99.90
2022-08-10T01:41:07.283Z,99.90
2022-08-10T01:43:39.323Z,99.90
2022-08-10T01:46:08.502Z,99.90
2022-08-10T01:48:51.090Z,99.90
2022-08-10T01:51:37.263Z,99.90
2022-08-10T01:54:28.584Z,99.90
2022-08-10T01:56:58.103Z,99.90
2022-08-10T01:59:32.742Z,99.90
2022-08-10T02:02:06.409Z,99.90
2022-08-10T02:04:37.984Z,99.90
2022-08-10T02:07:08.557Z,99.90
2022-08-10T02:09:40.643Z,99.90
2022-08-10T02:12:10.828Z,99.90
2022-08-10T02:14:44.579Z,99.90
2022-08-10T02:18:00.049Z,99.90
2022-08-10T02:20:10.170Z,99.90
2022-08-10T02:22:39.745Z,99.90
2022-08-10T02:25:39.724Z,99.90
2022-08-10T02:28:00.226Z,99.90
2022-08-10T02:30:29.248Z,99.90
2022-08-10T02:32:58.903Z,99.90
2022-08-10T02:35:29.173Z,99.90
2022-08-10T02:38:09.875Z,99.90
2022-08-10T02:42:18.646Z,99.90
2022-08-10T02:45:20.126Z,99.90
2022-08-10T02:46:33.377Z,99.90
2022-08-10T02:49:06.988Z,99.90
2022-08-10T02:52:07.291Z,99.90
2022-08-10T02:54:39.254Z,99.90
2022-08-10T02:57:13.731Z,99.90
2022-08-10T02:59:45.682Z,99.90
2022-08-10T03:02:21.199Z,99.90
2022-08-10T03:04:55.214Z,99.90
2022-08-10T03:07:44.662Z,99.90
2022-08-10T03:10:33.739Z,99.90
2022-08-10T03:13:04.259Z,99.90
2022-08-10T03:15:34.589Z,99.90
2022-08-10T03:18:03.131Z,99.90
2022-08-10T03:20:39.524Z,99.90
2022-08-10T03:23:17.506Z,99.90
2022-08-10T03:25:53.496Z,99.90
2022-08-10T03:28:29.574Z,99.90
2022-08-10T03:30:59.021Z,99.90
2022-08-10T03:33:29.824Z,99.90
2022-08-10T03:36:42.185Z,99.90
2022-08-10T03:38:48.642Z,99.90
2022-08-10T03:41:18.449Z,99.90
2022-08-10T03:43:48.946Z,99.90
2022-08-10T03:46:20.931Z,99.90
2022-08-10T03:48:51.969Z,99.90
2022-08-10T03:51:25.372Z,99.90
2022-08-10T03:54:02.740Z,99.90
2022-08-10T03:56:32.977Z,99.90
2022-08-10T03:59:01.419Z,99.90
2022-08-10T04:02:45.761Z,99.90
2022-08-10T04:04:23.751Z,99.90
2022-08-10T04:06:54.908Z,99.90
2022-08-10T04:09:54.142Z,99.90
2022-08-10T04:12:24.406Z,99.90
2022-08-10T04:14:53.130Z,99.90
2022-08-10T04:18:02.875Z,99.90
2022-08-10T04:20:38.096Z,99.90
2022-08-10T04:23:12.245Z,99.90
2022-08-10T04:25:40.835Z,99.90
2022-08-10T04:28:10.391Z,99.90
2022-08-10T04:30:38.425Z,99.90
2022-08-10T04:33:08.047Z,99.90
2022-08-10T04:35:37.111Z,99.90
2022-08-10T04:38:05.738Z,99.90
2022-08-10T04:40:33.162Z,99.90
2022-08-10T04:43:10.469Z,99.90
2022-08-10T04:45:50.479Z,99.90
2022-08-10T04:48:42.206Z,99.90
2022-08-10T04:51:18.456Z,99.90
2022-08-10T04:54:03.346Z,99.90
2022-08-10T04:56:38.347Z,99.90
2022-08-10T04:59:10.426Z,99.90
2022-08-10T05:02:27.882Z,99.90
2022-08-10T05:04:35.325Z,99.90
2022-08-10T05:07:16.697Z,99.90
2022-08-10T05:10:03.403Z,99.90
2022-08-10T05:12:38.546Z,99.90
2022-08-10T05:15:14.393Z,99.90
2022-08-10T05:18:08.118Z,99.90
2022-08-10T05:20:30.345Z,99.90
2022-08-10T05:22:57.687Z,99.90
2022-08-10T05:25:24.784Z,99.90
2022-08-10T05:27:52.587Z,99.90
2022-08-10T05:30:22.267Z,99.90
2022-08-10T05:32:57.223Z,99.90
2022-08-10T05:35:28.330Z,99.90
2022-08-10T05:38:10.952Z,99.90
2022-08-10T05:40:46.546Z,99.90
2022-08-10T05:43:20.185Z,99.90
2022-08-10T05:46:16.659Z,99.90
2022-08-10T05:48:54.256Z,99.90
2022-08-10T05:51:27.448Z,99.90
2022-08-10T05:54:00.854Z,99.90
2022-08-10T05:56:55.714Z,99.90
2022-08-10T06:00:10.844Z,99.90
2022-08-10T06:02:41.777Z,99.90
2022-08-10T06:05:09.209Z,99.90
2022-08-10T06:07:51.890Z,99.90
2022-08-10T06:10:31.354Z,99.90
2022-08-10T06:13:26.929Z,99.90
2022-08-10T06:16:00.334Z,99.90
2022-08-10T06:18:28.699Z,99.90
2022-08-10T06:20:57.477Z,99.90
2022-08-10T06:23:28.299Z,99.90
2022-08-10T06:26:11.097Z,99.90
2022-08-10T06:28:53.972Z,99.90
2022-08-10T06:31:47.749Z,99.90
2022-08-10T06:34:30.842Z,99.90
2022-08-10T06:37:02.556Z,99.90
2022-08-10T06:39:34.206Z,99.90
2022-08-10T06:42:17.618Z,99.90
2022-08-10T06:44:56.970Z,99.90
2022-08-10T06:47:46.527Z,99.90
2022-08-10T06:50:44.555Z,99.90
2022-08-10T06:53:17.061Z,99.90
2022-08-10T06:55:56.683Z,99.90
2022-08-10T06:58:36.338Z,99.90
2022-08-10T07:01:07.704Z,99.90
2022-08-10T07:03:44.941Z,99.90
2022-08-10T07:06:13.934Z,99.90
2022-08-10T07:08:42.060Z,99.90
2022-08-10T07:11:12.134Z,99.90
2022-08-10T07:14:16.647Z,99.90
2022-08-10T07:16:29.796Z,99.90
2022-08-10T07:18:58.682Z,99.90
2022-08-10T07:21:27.204Z,99.90
2022-08-10T07:24:00.089Z,99.90
2022-08-10T07:26:30.523Z,99.90
2022-08-10T07:28:59.350Z,99.90
2022-08-10T07:31:56.479Z,99.90
2022-08-10T07:34:22.589Z,99.90
2022-08-10T07:37:02.074Z,99.90
2022-08-10T07:39:57.889Z,99.90
2022-08-10T07:42:24.519Z,99.90
2022-08-10T07:44:52.011Z,99.90
2022-08-10T07:47:53.014Z,99.90
2022-08-10T07:50:25.350Z,99.90
2022-08-10T07:52:55.422Z,99.90
2022-08-10T07:56:05.099Z,99.90
2022-08-10T07:58:11.958Z,99.90
2022-08-10T08:00:40.625Z,99.90
2022-08-10T08:03:10.791Z,99.90
2022-08-10T08:06:02.995Z,99.90
2022-08-10T08:08:28.739Z,99.90
2022-08-10T08:10:58.075Z,99.90
2022-08-10T08:13:26.556Z,99.90
2022-08-10T08:16:18.353Z,99.90
2022-08-10T08:18:58.398Z,99.90
2022-08-10T08:24:09.974Z,99.90
2022-08-10T08:24:31.991Z,99.90
2022-08-10T08:27:05.637Z,99.90
2022-08-10T08:29:37.103Z,99.90
2022-08-10T08:32:05.639Z,99.90
2022-08-10T08:34:34.447Z,99.90
2022-08-10T08:37:02.898Z,99.90
2022-08-10T08:39:36.919Z,99.90
2022-08-10T08:42:10.206Z,99.90
2022-08-10T08:45:03.248Z,99.80
2022-08-10T08:48:05.291Z,99.50
2022-08-10T08:51:01.606Z,98.60
2022-08-10T08:54:02.428Z,99.10
2022-08-10T08:56:35.075Z,99.10
2022-08-10T08:59:08.151Z,99.20
2022-08-10T09:01:41.619Z,99.10
2022-08-10T09:04:29.648Z,99.00
2022-08-10T09:07:59.017Z,98.10
2022-08-10T09:10:45.381Z,98.70
2022-08-10T09:13:27.316Z,98.70
2022-08-10T09:16:15.651Z,97.40
2022-08-10T09:19:08.649Z,97.20
2022-08-10T09:22:12.387Z,96.70
2022-08-10T09:24:54.553Z,96.40
2022-08-10T09:27:26.617Z,95.60
2022-08-10T09:30:02.280Z,93.70
2022-08-10T09:36:16.275Z,93.50
2022-08-10T09:36:21.931Z,92.70
2022-08-10T09:40:55.990Z,92.00
2022-08-10T09:42:32.480Z,92.60
2022-08-10T09:45:12.677Z,92.50
2022-08-10T09:48:04.570Z,91.80
2022-08-10T09:51:42.076Z,91.30
2022-08-10T09:54:15.627Z,91.90
2022-08-10T09:57:43.966Z,90.90
2022-08-10T10:00:27.207Z,89.50
2022-08-10T10:03:06.575Z,90.00
2022-08-10T10:05:50.307Z,89.80
2022-08-10T10:09:10.622Z,90.50
2022-08-10T10:11:50.337Z,90.50
2022-08-10T10:14:59.530Z,86.60
2022-08-10T10:17:44.029Z,84.10
2022-08-10T10:20:27.117Z,83.80
2022-08-10T10:23:29.245Z,83.70
2022-08-10T10:26:18.289Z,82.30
2022-08-10T10:29:57.657Z,83.40
2022-08-10T10:32:36.758Z,81.80
2022-08-10T10:35:33.053Z,81.30
2022-08-10T10:38:03.705Z,81.20
2022-08-10T10:40:48.783Z,83.10
2022-08-10T10:43:40.780Z,82.30
2022-08-10T10:46:29.497Z,81.70
2022-08-10T10:49:29.586Z,80.80
2022-08-10T10:52:14.679Z,77.80
2022-08-10T10:54:53.776Z,72.60
2022-08-10T10:57:59.434Z,67.60
2022-08-10T11:00:14.393Z,66.40
2022-08-10T11:03:12.005Z,66.40
2022-08-10T11:05:52.979Z,65.60
2022-08-10T11:08:29.174Z,66.10
2022-08-10T11:11:21.603Z,66.90
2022-08-10T11:14:26.142Z,67.70
2022-08-10T11:17:17.079Z,68.10
2022-08-10T11:20:24.533Z,69.20
2022-08-10T11:23:28.472Z,67.90
2022-08-10T11:26:11.851Z,68.70
2022-08-10T11:28:51.526Z,67.20
2022-08-10T11:31:43.293Z,67.50
2022-08-10T11:34:48.194Z,67.80
2022-08-10T11:38:34.435Z,67.10
2022-08-10T11:40:44.684Z,68.70
2022-08-10T11:43:35.431Z,67.30
2022-08-10T11:46:27.628Z,66.40
2022-08-10T11:49:33.677Z,67.50
2022-08-10T11:52:08.397Z,64.90
2022-08-10T11:54:54.029Z,65.20
2022-08-10T11:57:53.232Z,65.20
2022-08-10T12:00:16.125Z,65.60
2022-08-10T12:03:05.859Z,66.30
2022-08-10T12:05:46.451Z,66.30
2022-08-10T12:10:02.306Z,66.50
2022-08-10T12:11:24.515Z,66.50
2022-08-10T12:14:22.343Z,66.30
2022-08-10T12:17:08.034Z,66.20
2022-08-10T12:19:59.673Z,65.90
2022-08-10T12:22:40.805Z,65.10
2022-08-10T12:25:18.192Z,64.40
2022-08-10T12:28:50.356Z,63.90
2022-08-10T12:31:35.259Z,64.60
2022-08-10T12:34:33.320Z,62.60
2022-08-10T12:37:12.325Z,63.10
2022-08-10T12:39:53.156Z,61.50
2022-08-10T12:42:38.896Z,61.80
2022-08-10T12:45:27.333Z,61.40
2022-08-10T12:48:20.979Z,60.80
2022-08-10T12:50:59.383Z,62.10
2022-08-10T12:54:02.524Z,62.30
2022-08-10T12:56:39.442Z,59.40
2022-08-10T12:59:10.904Z,58.50
2022-08-10T13:02:09.805Z,56.50
2022-08-10T13:04:32.941Z,54.50
2022-08-10T13:07:02.101Z,54.00
2022-08-10T13:09:30.497Z,53.30
2022-08-10T13:12:38.460Z,51.30
2022-08-10T13:14:58.018Z,50.70
2022-08-10T13:17:38.638Z,49.20
2022-08-10T13:20:30.099Z,48.10
2022-08-10T13:23:01.349Z,47.60
2022-08-10T13:25:35.285Z,48.10
2022-08-10T13:28:37.050Z,48.90
2022-08-10T13:30:55.688Z,49.40
2022-08-10T13:34:41.632Z,51.30
2022-08-10T13:36:20.675Z,50.90
2022-08-10T13:38:50.114Z,50.30
2022-08-10T13:41:18.374Z,49.60
2022-08-10T13:43:56.045Z,49.20
2022-08-10T13:46:24.319Z,49.60
2022-08-10T13:48:55.651Z,49.20
2022-08-10T13:51:54.598Z,48.60
2022-08-10T13:54:17.384Z,47.90
2022-08-10T13:56:48.814Z,48.60
2022-08-10T13:59:17.784Z,50.10
2022-08-10T14:01:50.917Z,51.40
2022-08-10T14:04:19.800Z,52.30
2022-08-10T14:06:56.525Z,53.60
2022-08-10T14:09:31.282Z,54.40
2022-08-10T14:11:59.545Z,55.50
2022-08-10T14:14:29.318Z,55.60
2022-08-10T14:16:59.193Z,55.70
2022-08-10T14:19:31.903Z,56.50
2022-08-10T14:22:00.603Z,56.60
2022-08-10T14:24:30.063Z,56.60
2022-08-10T14:27:09.086Z,56.40
2022-08-10T14:29:48.514Z,56.20
2022-08-10T14:32:18.689Z,55.70
2022-08-10T14:36:16.544Z,55.40
2022-08-10T14:37:58.648Z,55.50
2022-08-10T14:40:33.745Z,54.20
2022-08-10T14:43:28.775Z,54.00
2022-08-10T14:46:03.640Z,53.00
2022-08-10T14:48:45.575Z,54.40
2022-08-10T14:51:17.771Z,53.00
2022-08-10T14:53:53.405Z,51.90
2022-08-10T14:56:33.910Z,51.20
2022-08-10T14:59:06.645Z,50.00
2022-08-10T15:01:59.950Z,48.80
2022-08-10T15:04:30.977Z,48.40
2022-08-10T15:07:12.090Z,48.40
2022-08-10T15:10:01.389Z,48.50
2022-08-10T15:12:35.542Z,48.30
2022-08-10T15:15:05.500Z,47.60
2022-08-10T15:17:41.986Z,47.10
2022-08-10T15:20:23.455Z,47.90
2022-08-10T15:23:05.252Z,47.80
2022-08-10T15:25:36.716Z,49.60
2022-08-10T15:28:08.190Z,50.20
2022-08-10T15:30:47.516Z,50.70
2022-08-10T15:34:01.891Z,51.90
2022-08-10T15:36:46.150Z,52.90
2022-08-10T15:40:21.641Z,53.50
2022-08-10T15:42:22.968Z,53.10
2022-08-10T15:44:53.976Z,52.60
2022-08-10T15:47:26.141Z,53.20
2022-08-10T15:50:02.797Z,53.20
2022-08-10T15:53:01.702Z,52.20
2022-08-10T15:55:42.364Z,52.30
2022-08-10T15:58:40.056Z,51.70
2022-08-10T16:02:13.157Z,50.70
2022-08-10T16:04:14.696Z,51.50
2022-08-10T16:06:55.601Z,51.20
2022-08-10T16:10:26.305Z,50.40
2022-08-10T16:12:17.548Z,50.90
2022-08-10T16:14:59.684Z,50.80
2022-08-10T16:17:28.226Z,51.30
2022-08-10T16:19:57.838Z,50.60
2022-08-10T16:22:34.421Z,50.30
2022-08-10T16:25:13.947Z,50.10
2022-08-10T16:27:43.272Z,50.80
2022-08-10T16:30:11.236Z,51.90
2022-08-10T16:32:39.598Z,51.40
2022-08-10T16:35:10.336Z,52.30
2022-08-10T16:37:57.826Z,51.40
2022-08-10T16:40:29.505Z,51.30
2022-08-10T16:42:59.813Z,51.40
2022-08-10T16:45:41.303Z,51.80
2022-08-10T16:48:09.887Z,51.10
2022-08-10T16:50:45.388Z,51.00
2022-08-10T16:53:16.894Z,49.80
2022-08-10T16:55:50.708Z,50.50
2022-08-10T16:58:27.241Z,50.40
2022-08-10T17:01:04.613Z,51.10
2022-08-10T17:04:08.254Z,51.30
2022-08-10T17:06:34.303Z,51.60
2022-08-10T17:09:06.540Z,51.40
2022-08-10T17:11:37.517Z,51.70
2022-08-10T17:14:08.466Z,51.80
2022-08-10T17:16:38.691Z,51.90
2022-08-10T17:19:12.932Z,51.80
2022-08-10T17:21:51.942Z,51.90
2022-08-10T17:24:24.225Z,52.20
2022-08-10T17:26:51.629Z,52.10
2022-08-10T17:29:58.228Z,52.70
2022-08-10T17:32:33.802Z,53.00
2022-08-10T17:35:23.435Z,53.70
2022-08-10T17:37:57.890Z,54.70
2022-08-10T17:40:27.572Z,55.10
2022-08-10T17:42:55.920Z,55.30
2022-08-10T17:45:46.299Z,55.10
2022-08-10T17:48:26.305Z,55.30
2022-08-10T17:50:54.808Z,55.80
2022-08-10T17:53:27.811Z,55.60
2022-08-10T17:55:57.958Z,57.00
2022-08-10T17:58:28.231Z,57.20
2022-08-10T18:00:57.516Z,58.20
2022-08-10T18:03:56.856Z,58.60
2022-08-10T18:06:25.606Z,59.20
2022-08-10T18:09:06.465Z,60.00
2022-08-10T18:11:40.219Z,60.00
2022-08-10T18:14:09.672Z,60.20
2022-08-10T18:16:41.855Z,61.00
2022-08-10T18:19:14.489Z,61.50
2022-08-10T18:21:46.289Z,62.20
2022-08-10T18:24:20.000Z,62.80
2022-08-10T18:26:50.916Z,63.10
2022-08-10T18:29:24.370Z,63.40
2022-08-10T18:31:57.517Z,63.60
2022-08-10T18:34:27.067Z,64.90
2022-08-10T18:36:54.649Z,65.50
2022-08-10T18:39:26.264Z,65.20
2022-08-10T18:42:24.331Z,65.70
2022-08-10T18:44:55.654Z,66.70
2022-08-10T18:47:39.289Z,66.60
2022-08-10T18:50:12.279Z,67.50
2022-08-10T18:52:43.253Z,67.50
2022-08-10T18:55:35.387Z,67.90
2022-08-10T18:58:29.841Z,68.70
2022-08-10T19:01:28.211Z,69.10
2022-08-10T19:04:22.129Z,69.40
2022-08-10T19:06:49.549Z,70.00
2022-08-10T19:10:02.808Z,69.90
2022-08-10T19:12:53.143Z,70.70
2022-08-10T19:15:47.382Z,71.00
2022-08-10T19:18:45.780Z,71.50
2022-08-10T19:21:28.818Z,72.00
2022-08-10T19:24:12.087Z,72.50
2022-08-10T19:26:49.544Z,72.40
2022-08-10T19:30:11.189Z,73.20
2022-08-10T19:32:46.450Z,73.70
2022-08-10T19:36:03.432Z,74.00
2022-08-10T19:38:33.418Z,74.60
2022-08-10T19:41:41.780Z,74.90
2022-08-10T19:44:32.927Z,75.50
2022-08-10T19:47:06.822Z,76.00
2022-08-10T19:49:59.438Z,76.20
2022-08-10T19:52:59.666Z,76.70
2022-08-10T19:55:50.650Z,77.20
2022-08-10T19:58:59.685Z,77.70
2022-08-10T20:01:56.269Z,78.40
2022-08-10T20:04:22.405Z,78.90
2022-08-10T20:07:10.240Z,79.90
2022-08-10T20:09:55.038Z,80.90
2022-08-10T20:12:27.465Z,81.70
2022-08-10T20:15:15.605Z,82.30
2022-08-10T20:17:55.217Z,83.90
2022-08-10T20:20:36.422Z,84.50
2022-08-10T20:23:25.120Z,85.80
2022-08-10T20:25:56.526Z,87.00
2022-08-10T20:28:32.471Z,87.90
2022-08-10T20:31:09.198Z,89.80
2022-08-10T20:33:58.646Z,91.20
2022-08-10T20:36:36.944Z,92.50
2022-08-10T20:39:13.534Z,93.60
2022-08-10T20:42:19.831Z,94.50
2022-08-10T20:45:18.326Z,95.50
2022-08-10T20:48:07.212Z,96.40
2022-08-10T20:50:40.862Z,97.20
2022-08-10T20:53:16.900Z,97.70
2022-08-10T20:56:03.678Z,98.60
2022-08-10T20:59:00.680Z,98.90
2022-08-10T21:02:07.199Z,99.60
2022-08-10T21:05:16.161Z,99.90
2022-08-10T21:08:05.009Z,99.90
2022-08-10T21:11:07.512Z,99.90
2022-08-10T21:13:57.110Z,99.90
2022-08-10T21:19:52.226Z,99.90
2022-08-10T21:22:29.322Z,99.90
2022-08-10T21:25:08.651Z,99.90
2022-08-10T21:27:57.744Z,99.90
2022-08-10T21:30:58.518Z,99.90
2022-08-10T21:34:02.222Z,99.90
2022-08-10T21:36:59.794Z,99.90
2022-08-10T21:39:50.383Z,99.90
2022-08-10T21:42:45.045Z,99.90
2022-08-10T21:45:58.279Z,99.90
2022-08-10T21:49:14.795Z,99.90
2022-08-10T21:52:12.628Z,99.90
2022-08-10T21:55:17.413Z,99.90
2022-08-10T21:58:15.914Z,99.90
2022-08-10T22:04:19.236Z,99.90
2022-08-10T22:10:30.937Z,99.90
2022-08-10T22:13:21.314Z,99.90
2022-08-10T22:16:13.706Z,99.90
2022-08-10T22:19:03.702Z,99.90
2022-08-10T22:22:27.724Z,99.90
2022-08-10T22:25:19.828Z,99.90
2022-08-10T22:28:12.343Z,99.90
2022-08-10T22:31:28.265Z,99.90
2022-08-10T22:34:39.549Z,99.90
2022-08-10T22:37:55.626Z,99.90
2022-08-10T22:40:43.139Z,99.90
2022-08-10T22:43:40.129Z,99.90
2022-08-10T22:46:43.974Z,99.90
2022-08-10T22:49:12.184Z,99.90
2022-08-10T22:51:48.497Z,99.90
2022-08-10T22:54:57.749Z,99.90
2022-08-10T22:57:44.368Z,99.90
2022-08-10T23:00:20.284Z,99.90
2022-08-10T23:03:11.099Z,99.90
2022-08-10T23:05:54.091Z,99.90
2022-08-10T23:08:31.987Z,99.90
2022-08-10T23:11:08.374Z,99.90
2022-08-10T23:13:43.722Z,99.90
2022-08-10T23:16:43.096Z,99.90
2022-08-10T23:19:24.699Z,99.90
2022-08-10T23:22:11.524Z,99.90
2022-08-10T23:24:47.826Z,99.90
2022-08-10T23:27:38.519Z,99.90
2022-08-10T23:30:18.138Z,99.90
2022-08-10T23:32:50.698Z,99.90
2022-08-10T23:36:04.605Z,99.90
2022-08-10T23:38:10.729Z,99.90
2022-08-10T23:40:43.406Z,99.90
2022-08-10T23:43:19.192Z,99.90
2022-08-10T23:45:56.571Z,99.90
2022-08-10T23:48:36.049Z,99.90
2022-08-10T23:51:16.372Z,99.90
2022-08-10T23:53:46.494Z,99.90
2022-08-10T23:56:20.503Z,99.90
2022-08-10T23:58:50.312Z,99.90
